AFL263 UWSG-UWKD
Flight info
| Callsign | AFL263 |
|---|---|
| Flight time | 0h 49m |
| Altitude | 31000 |
| Route | UWSG OGRER T789 SONUM UWKD |
| Aircraft | B738/M-SDE2E3FGHIRWXY/LB1 |
Departure
| Time | 2026-04-26 15:43 |
|---|---|
| Airport | Gagarin International Airport (UWSG) |
Arrival
| Time | 2026-04-26 16:32 |
|---|---|
| Airport | Kazan International Airport (UWKD) |
| Time | Latitude | Longitude | Altitude | Speed | Heading |
|---|---|---|---|---|---|
| 2026-04-26 15:14 | 51.71692 | 46.17035 | 103 ft | 0 kts | 2° |
| 2026-04-26 15:26 | 51.71687 | 46.17034 | 102 ft | 2 kts | 1° |
| 2026-04-26 15:26 | 51.71670 | 46.17034 | 102 ft | 2 kts | 1° |
| 2026-04-26 15:26 | 51.71654 | 46.17033 | 102 ft | 2 kts | 350° |
| 2026-04-26 15:26 | 51.71639 | 46.17044 | 103 ft | 2 kts | 309° |
| 2026-04-26 15:27 | 51.71632 | 46.17063 | 103 ft | 1 kts | 278° |
| 2026-04-26 15:27 | 51.71632 | 46.17066 | 103 ft | 0 kts | 276° |
| 2026-04-26 15:29 | 51.71632 | 46.17062 | 103 ft | 2 kts | 274° |
| 2026-04-26 15:30 | 51.71634 | 46.16948 | 103 ft | 9 kts | 271° |
| 2026-04-26 15:30 | 51.71637 | 46.16840 | 103 ft | 10 kts | 272° |
| 2026-04-26 15:30 | 51.71639 | 46.16730 | 102 ft | 10 kts | 272° |
| 2026-04-26 15:31 | 51.71639 | 46.16631 | 100 ft | 8 kts | 259° |
| 2026-04-26 15:31 | 51.71548 | 46.16577 | 102 ft | 7 kts | 182° |
| 2026-04-26 15:31 | 51.71498 | 46.16573 | 102 ft | 7 kts | 182° |
| 2026-04-26 15:32 | 51.71433 | 46.16569 | 101 ft | 7 kts | 182° |
| 2026-04-26 15:32 | 51.71404 | 46.16567 | 101 ft | 0 kts | 182° |
| 2026-04-26 15:35 | 51.71385 | 46.16566 | 101 ft | 5 kts | 182° |
| 2026-04-26 15:35 | 51.71330 | 46.16562 | 100 ft | 11 kts | 185° |
| 2026-04-26 15:36 | 51.71280 | 46.16480 | 99 ft | 11 kts | 264° |
| 2026-04-26 15:36 | 51.71282 | 46.16355 | 100 ft | 11 kts | 272° |
| 2026-04-26 15:36 | 51.71285 | 46.16234 | 100 ft | 11 kts | 272° |
| 2026-04-26 15:36 | 51.71287 | 46.16154 | 100 ft | 10 kts | 272° |
| 2026-04-26 15:37 | 51.71288 | 46.16122 | 100 ft | 10 kts | 272° |
| 2026-04-26 15:38 | 51.71290 | 46.16009 | 101 ft | 10 kts | 272° |
| 2026-04-26 15:38 | 51.71293 | 46.15897 | 102 ft | 10 kts | 272° |
| 2026-04-26 15:38 | 51.71295 | 46.15785 | 101 ft | 11 kts | 271° |
| 2026-04-26 15:39 | 51.71298 | 46.15660 | 101 ft | 12 kts | 272° |
| 2026-04-26 15:39 | 51.71301 | 46.15516 | 100 ft | 14 kts | 272° |
| 2026-04-26 15:39 | 51.71305 | 46.15359 | 99 ft | 15 kts | 272° |
| 2026-04-26 15:39 | 51.71308 | 46.15241 | 97 ft | 16 kts | 272° |
| 2026-04-26 15:40 | 51.71338 | 46.15068 | 97 ft | 8 kts | 293° |
| 2026-04-26 15:40 | 51.71339 | 46.14979 | 94 ft | 8 kts | 237° |
| 2026-04-26 15:40 | 51.71313 | 46.15012 | 97 ft | 4 kts | 94° |
| 2026-04-26 15:40 | 51.71313 | 46.15040 | 97 ft | 0 kts | 90° |
| 2026-04-26 15:42 | 51.71311 | 46.15148 | 99 ft | 38 kts | 92° |
| 2026-04-26 15:42 | 51.71290 | 46.16002 | 101 ft | 113 kts | 93° |
| 2026-04-26 15:43 | 51.71254 | 46.17610 | 183 ft | 166 kts | 94° |
| 2026-04-26 15:43 | 51.71272 | 46.19474 | 1007 ft | 163 kts | 96° |
| 2026-04-26 15:43 | 51.71218 | 46.23193 | 2577 ft | 174 kts | 104° |
| 2026-04-26 15:44 | 51.71153 | 46.25176 | 3349 ft | 178 kts | 104° |
| 2026-04-26 15:44 | 51.71084 | 46.29743 | 4063 ft | 240 kts | 84° |
| 2026-04-26 15:44 | 51.71901 | 46.32271 | 4443 ft | 269 kts | 52° |
| 2026-04-26 15:45 | 51.75402 | 46.35450 | 5676 ft | 299 kts | 23° |
| 2026-04-26 15:45 | 51.77279 | 46.36754 | 6678 ft | 298 kts | 23° |
| 2026-04-26 15:46 | 51.81129 | 46.39444 | 8420 ft | 304 kts | 19° |
| 2026-04-26 15:46 | 51.83209 | 46.40065 | 9325 ft | 304 kts | 1° |
| 2026-04-26 15:46 | 51.85328 | 46.40238 | 10206 ft | 307 kts | 0° |
| 2026-04-26 15:46 | 51.86774 | 46.40351 | 10735 ft | 310 kts | 0° |
| 2026-04-26 15:47 | 51.89656 | 46.40600 | 11788 ft | 315 kts | 0° |
| 2026-04-26 15:47 | 51.94094 | 46.41040 | 13398 ft | 323 kts | 0° |
| 2026-04-26 15:47 | 51.96355 | 46.41278 | 14145 ft | 327 kts | 0° |
| 2026-04-26 15:48 | 51.98637 | 46.41522 | 14876 ft | 330 kts | 0° |
| 2026-04-26 15:48 | 52.00936 | 46.41853 | 15594 ft | 336 kts | 8° |
| 2026-04-26 15:48 | 52.03158 | 46.43177 | 15990 ft | 356 kts | 25° |
| 2026-04-26 15:48 | 52.05419 | 46.45115 | 16158 ft | 377 kts | 26° |
| 2026-04-26 15:49 | 52.07774 | 46.47204 | 16563 ft | 390 kts | 26° |
| 2026-04-26 15:49 | 52.10183 | 46.49323 | 17229 ft | 394 kts | 26° |
| 2026-04-26 15:49 | 52.12607 | 46.51413 | 17973 ft | 396 kts | 25° |
| 2026-04-26 15:49 | 52.15067 | 46.53504 | 18596 ft | 400 kts | 25° |
| 2026-04-26 15:50 | 52.17547 | 46.55602 | 19180 ft | 404 kts | 25° |
| 2026-04-26 15:50 | 52.20059 | 46.57725 | 19751 ft | 408 kts | 25° |
| 2026-04-26 15:50 | 52.22560 | 46.59839 | 20358 ft | 411 kts | 25° |
| 2026-04-26 15:50 | 52.25102 | 46.61990 | 20943 ft | 414 kts | 25° |
| 2026-04-26 15:51 | 52.27679 | 46.64175 | 21477 ft | 419 kts | 25° |
| 2026-04-26 15:51 | 52.30280 | 46.66383 | 22018 ft | 423 kts | 25° |
| 2026-04-26 15:51 | 52.32904 | 46.68616 | 22564 ft | 427 kts | 25° |
| 2026-04-26 15:51 | 52.35551 | 46.70871 | 23104 ft | 431 kts | 25° |
| 2026-04-26 15:52 | 52.38219 | 46.73148 | 23588 ft | 434 kts | 25° |
| 2026-04-26 15:52 | 52.40918 | 46.75454 | 24043 ft | 437 kts | 25° |
| 2026-04-26 15:52 | 52.43589 | 46.77741 | 24524 ft | 439 kts | 25° |
| 2026-04-26 15:52 | 52.45421 | 46.79310 | 24855 ft | 440 kts | 25° |
| 2026-04-26 15:53 | 52.49036 | 46.82410 | 25477 ft | 444 kts | 24° |
| 2026-04-26 15:53 | 52.51781 | 46.84769 | 25882 ft | 447 kts | 24° |
| 2026-04-26 15:53 | 52.54542 | 46.87151 | 26321 ft | 449 kts | 24° |
| 2026-04-26 15:53 | 52.57318 | 46.89555 | 26768 ft | 451 kts | 24° |
| 2026-04-26 15:54 | 52.60097 | 46.91965 | 27329 ft | 450 kts | 24° |
| 2026-04-26 15:54 | 52.62855 | 46.94362 | 27966 ft | 446 kts | 24° |
| 2026-04-26 15:54 | 52.65593 | 46.96744 | 28600 ft | 443 kts | 24° |
| 2026-04-26 15:54 | 52.68289 | 46.99091 | 29163 ft | 442 kts | 24° |
| 2026-04-26 15:55 | 52.71011 | 47.01463 | 29673 ft | 442 kts | 24° |
| 2026-04-26 15:55 | 52.73726 | 47.03832 | 30163 ft | 440 kts | 24° |
| 2026-04-26 15:55 | 52.76436 | 47.06200 | 30608 ft | 439 kts | 24° |
| 2026-04-26 15:55 | 52.79150 | 47.08574 | 30812 ft | 442 kts | 24° |
| 2026-04-26 15:56 | 52.81830 | 47.10922 | 30816 ft | 440 kts | 24° |
| 2026-04-26 15:56 | 52.87240 | 47.15670 | 30819 ft | 439 kts | 24° |
| 2026-04-26 15:57 | 52.92638 | 47.20416 | 30817 ft | 440 kts | 24° |
| 2026-04-26 15:57 | 52.98056 | 47.25195 | 30816 ft | 441 kts | 25° |
| 2026-04-26 15:58 | 53.03453 | 47.29971 | 30827 ft | 442 kts | 24° |
| 2026-04-26 15:58 | 53.08895 | 47.34801 | 30821 ft | 443 kts | 24° |
| 2026-04-26 15:59 | 53.14337 | 47.39643 | 30812 ft | 443 kts | 24° |
| 2026-04-26 15:59 | 53.19785 | 47.44503 | 30814 ft | 443 kts | 25° |
| 2026-04-26 16:00 | 53.25181 | 47.49326 | 30816 ft | 442 kts | 25° |
| 2026-04-26 16:00 | 53.30604 | 47.54187 | 30812 ft | 442 kts | 25° |
| 2026-04-26 16:01 | 53.36015 | 47.59052 | 30815 ft | 441 kts | 25° |
| 2026-04-26 16:01 | 53.41415 | 47.63922 | 30804 ft | 440 kts | 25° |
| 2026-04-26 16:02 | 53.46805 | 47.68795 | 30806 ft | 440 kts | 25° |
| 2026-04-26 16:02 | 53.52372 | 47.72937 | 30817 ft | 436 kts | 17° |
| 2026-04-26 16:03 | 53.58061 | 47.76503 | 30813 ft | 437 kts | 16° |
| 2026-04-26 16:03 | 53.63715 | 47.80163 | 30812 ft | 438 kts | 17° |
| 2026-04-26 16:04 | 53.69395 | 47.83923 | 30810 ft | 439 kts | 17° |
| 2026-04-26 16:04 | 53.75232 | 47.86661 | 30815 ft | 433 kts | 7° |
| 2026-04-26 16:05 | 53.81114 | 47.88899 | 30795 ft | 434 kts | 8° |
| 2026-04-26 16:05 | 53.86835 | 47.92346 | 30811 ft | 438 kts | 20° |
| 2026-04-26 16:06 | 53.92382 | 47.96668 | 30793 ft | 439 kts | 21° |
| 2026-04-26 16:06 | 53.97930 | 48.00970 | 30813 ft | 438 kts | 20° |
| 2026-04-26 16:07 | 54.03476 | 48.05197 | 30737 ft | 432 kts | 19° |
| 2026-04-26 16:07 | 54.06172 | 48.07244 | 30417 ft | 426 kts | 19° |
| 2026-04-26 16:07 | 54.08863 | 48.09288 | 30113 ft | 422 kts | 19° |
| 2026-04-26 16:07 | 54.11535 | 48.11319 | 29739 ft | 419 kts | 19° |
| 2026-04-26 16:08 | 54.14183 | 48.13334 | 29341 ft | 415 kts | 19° |
| 2026-04-26 16:08 | 54.15928 | 48.14665 | 29106 ft | 412 kts | 19° |
| 2026-04-26 16:08 | 54.19412 | 48.17325 | 28597 ft | 407 kts | 19° |
| 2026-04-26 16:08 | 54.21980 | 48.19289 | 28240 ft | 403 kts | 19° |
| 2026-04-26 16:09 | 54.24529 | 48.21241 | 27861 ft | 399 kts | 19° |
| 2026-04-26 16:09 | 54.27039 | 48.23225 | 27529 ft | 397 kts | 22° |
| 2026-04-26 16:09 | 54.29468 | 48.25427 | 27242 ft | 392 kts | 24° |
| 2026-04-26 16:09 | 54.31838 | 48.27711 | 26866 ft | 390 kts | 25° |
| 2026-04-26 16:10 | 54.34185 | 48.30015 | 26515 ft | 388 kts | 25° |
| 2026-04-26 16:10 | 54.36527 | 48.32314 | 26159 ft | 385 kts | 25° |
| 2026-04-26 16:10 | 54.38819 | 48.34552 | 25812 ft | 383 kts | 25° |
| 2026-04-26 16:10 | 54.41132 | 48.36799 | 25461 ft | 381 kts | 25° |
| 2026-04-26 16:11 | 54.43432 | 48.39026 | 25116 ft | 378 kts | 24° |
| 2026-04-26 16:11 | 54.45721 | 48.41237 | 24771 ft | 376 kts | 24° |
| 2026-04-26 16:11 | 54.47998 | 48.43438 | 24429 ft | 374 kts | 24° |
| 2026-04-26 16:11 | 54.50268 | 48.45633 | 24084 ft | 373 kts | 24° |
| 2026-04-26 16:12 | 54.52526 | 48.47818 | 23740 ft | 371 kts | 24° |
| 2026-04-26 16:12 | 54.54782 | 48.50005 | 23399 ft | 370 kts | 24° |
| 2026-04-26 16:12 | 54.59227 | 48.54321 | 22630 ft | 367 kts | 25° |
| 2026-04-26 16:13 | 54.61446 | 48.56481 | 22265 ft | 364 kts | 25° |
| 2026-04-26 16:13 | 54.63645 | 48.58624 | 21931 ft | 361 kts | 25° |
| 2026-04-26 16:13 | 54.65831 | 48.60758 | 21584 ft | 358 kts | 25° |
| 2026-04-26 16:13 | 54.67990 | 48.62867 | 21249 ft | 356 kts | 25° |
| 2026-04-26 16:14 | 54.70140 | 48.64969 | 20915 ft | 353 kts | 25° |
| 2026-04-26 16:14 | 54.72246 | 48.67030 | 20593 ft | 351 kts | 25° |
| 2026-04-26 16:14 | 54.76473 | 48.71176 | 19944 ft | 347 kts | 25° |
| 2026-04-26 16:15 | 54.78566 | 48.73231 | 19615 ft | 345 kts | 25° |
| 2026-04-26 16:15 | 54.80652 | 48.75283 | 19292 ft | 343 kts | 25° |
| 2026-04-26 16:15 | 54.82719 | 48.77319 | 18970 ft | 341 kts | 25° |
| 2026-04-26 16:16 | 54.86792 | 48.81346 | 18458 ft | 334 kts | 25° |
| 2026-04-26 16:16 | 54.88808 | 48.83343 | 18155 ft | 332 kts | 25° |
| 2026-04-26 16:16 | 54.90812 | 48.85329 | 17800 ft | 331 kts | 25° |
| 2026-04-26 16:16 | 54.92780 | 48.87282 | 17454 ft | 329 kts | 25° |
| 2026-04-26 16:17 | 54.94767 | 48.89255 | 17120 ft | 327 kts | 25° |
| 2026-04-26 16:17 | 54.96738 | 48.91215 | 16793 ft | 325 kts | 25° |
| 2026-04-26 16:17 | 54.98699 | 48.93167 | 16472 ft | 323 kts | 25° |
| 2026-04-26 16:17 | 55.00649 | 48.95111 | 16158 ft | 321 kts | 26° |
| 2026-04-26 16:18 | 55.02588 | 48.97047 | 15840 ft | 320 kts | 26° |
| 2026-04-26 16:18 | 55.06409 | 49.00867 | 15212 ft | 317 kts | 26° |
| 2026-04-26 16:19 | 55.10225 | 49.04689 | 14571 ft | 314 kts | 26° |
| 2026-04-26 16:19 | 55.12119 | 49.06589 | 14268 ft | 313 kts | 26° |
| 2026-04-26 16:19 | 55.15247 | 49.09734 | 13764 ft | 311 kts | 27° |
| 2026-04-26 16:20 | 55.17854 | 49.11785 | 13297 ft | 304 kts | 8° |
| 2026-04-26 16:20 | 55.21964 | 49.12979 | 12658 ft | 299 kts | 5° |
| 2026-04-26 16:20 | 55.24017 | 49.13548 | 12344 ft | 298 kts | 5° |
| 2026-04-26 16:21 | 55.26060 | 49.14128 | 12023 ft | 297 kts | 5° |
| 2026-04-26 16:21 | 55.28092 | 49.14719 | 11743 ft | 295 kts | 5° |
| 2026-04-26 16:21 | 55.30113 | 49.15317 | 11450 ft | 293 kts | 5° |
| 2026-04-26 16:21 | 55.32116 | 49.15914 | 11157 ft | 291 kts | 5° |
| 2026-04-26 16:22 | 55.33445 | 49.16313 | 10941 ft | 290 kts | 5° |
| 2026-04-26 16:22 | 55.35433 | 49.16911 | 10662 ft | 289 kts | 5° |
| 2026-04-26 16:22 | 55.38055 | 49.17703 | 10266 ft | 288 kts | 5° |
| 2026-04-26 16:22 | 55.40026 | 49.18299 | 9986 ft | 286 kts | 5° |
| 2026-04-26 16:23 | 55.41964 | 49.18888 | 9860 ft | 279 kts | 5° |
| 2026-04-26 16:23 | 55.43251 | 49.19280 | 9740 ft | 276 kts | 5° |
| 2026-04-26 16:23 | 55.45117 | 49.19846 | 9447 ft | 275 kts | 5° |
| 2026-04-26 16:23 | 55.47000 | 49.20418 | 9169 ft | 274 kts | 5° |
| 2026-04-26 16:24 | 55.48875 | 49.20789 | 8875 ft | 267 kts | 349° |
| 2026-04-26 16:24 | 55.50560 | 49.19773 | 8539 ft | 254 kts | 321° |
| 2026-04-26 16:24 | 55.51867 | 49.17666 | 8181 ft | 256 kts | 304° |
| 2026-04-26 16:24 | 55.52953 | 49.15124 | 7736 ft | 262 kts | 301° |
| 2026-04-26 16:25 | 55.54002 | 49.12503 | 7290 ft | 266 kts | 300° |
| 2026-04-26 16:25 | 55.55094 | 49.09767 | 6833 ft | 271 kts | 301° |
| 2026-04-26 16:25 | 55.56221 | 49.06975 | 6362 ft | 276 kts | 301° |
| 2026-04-26 16:25 | 55.57316 | 49.04293 | 5887 ft | 280 kts | 301° |
| 2026-04-26 16:26 | 55.58468 | 49.01484 | 5401 ft | 284 kts | 301° |
| 2026-04-26 16:26 | 55.59637 | 48.98638 | 4910 ft | 288 kts | 301° |
| 2026-04-26 16:26 | 55.60862 | 48.95811 | 4527 ft | 289 kts | 310° |
| 2026-04-26 16:26 | 55.62529 | 48.93849 | 4136 ft | 298 kts | 337° |
| 2026-04-26 16:27 | 55.64597 | 48.93479 | 3788 ft | 301 kts | 6° |
| 2026-04-26 16:27 | 55.66542 | 48.94698 | 3454 ft | 295 kts | 30° |
| 2026-04-26 16:27 | 55.68223 | 48.96696 | 3149 ft | 286 kts | 34° |
| 2026-04-26 16:27 | 55.69783 | 48.98794 | 2819 ft | 279 kts | 48° |
| 2026-04-26 16:28 | 55.70607 | 49.01629 | 2630 ft | 249 kts | 90° |
| 2026-04-26 16:28 | 55.70342 | 49.04348 | 2472 ft | 207 kts | 131° |
| 2026-04-26 16:28 | 55.69403 | 49.05966 | 2351 ft | 178 kts | 147° |
| 2026-04-26 16:28 | 55.68598 | 49.07589 | 2219 ft | 171 kts | 138° |
| 2026-04-26 16:29 | 55.67891 | 49.09201 | 2101 ft | 161 kts | 136° |
| 2026-04-26 16:29 | 55.67258 | 49.10781 | 1995 ft | 155 kts | 135° |
| 2026-04-26 16:29 | 55.66651 | 49.12339 | 1903 ft | 148 kts | 135° |
| 2026-04-26 16:29 | 55.66085 | 49.13800 | 1774 ft | 141 kts | 135° |
| 2026-04-26 16:30 | 55.65519 | 49.15250 | 1721 ft | 146 kts | 135° |
| 2026-04-26 16:30 | 55.64946 | 49.16730 | 1515 ft | 143 kts | 134° |
| 2026-04-26 16:30 | 55.64397 | 49.18148 | 1326 ft | 140 kts | 133° |
| 2026-04-26 16:30 | 55.63840 | 49.19578 | 1153 ft | 143 kts | 130° |
| 2026-04-26 16:31 | 55.63276 | 49.21038 | 952 ft | 143 kts | 130° |
| 2026-04-26 16:31 | 55.62718 | 49.22478 | 779 ft | 142 kts | 127° |
| 2026-04-26 16:31 | 55.62159 | 49.23923 | 593 ft | 142 kts | 127° |
| 2026-04-26 16:31 | 55.61592 | 49.25351 | 420 ft | 140 kts | 127° |
| 2026-04-26 16:32 | 55.61074 | 49.26694 | 418 ft | 129 kts | 124° |
| 2026-04-26 16:32 | 55.60759 | 49.27554 | 414 ft | 119 kts | 128° |
| 2026-04-26 16:32 | 55.60272 | 49.28782 | 414 ft | 56 kts | 125° |
| 2026-04-26 16:32 | 55.60083 | 49.29259 | 415 ft | 31 kts | 125° |
| 2026-04-26 16:33 | 55.59973 | 49.29538 | 414 ft | 27 kts | 125° |
| 2026-04-26 16:33 | 55.59872 | 49.29800 | 415 ft | 21 kts | 123° |
| 2026-04-26 16:33 | 55.59835 | 49.29905 | 412 ft | 9 kts | 116° |
| 2026-04-26 16:33 | 55.59839 | 49.30019 | 408 ft | 10 kts | 55° |
| 2026-04-26 16:34 | 55.59897 | 49.30093 | 415 ft | 10 kts | 30° |
| 2026-04-26 16:34 | 55.59964 | 49.30122 | 411 ft | 10 kts | 358° |
| 2026-04-26 16:34 | 55.60030 | 49.30081 | 412 ft | 10 kts | 334° |
| 2026-04-26 16:34 | 55.60095 | 49.30025 | 412 ft | 10 kts | 334° |
| 2026-04-26 16:35 | 55.60158 | 49.29972 | 409 ft | 10 kts | 334° |
| 2026-04-26 16:35 | 55.60219 | 49.29919 | 415 ft | 10 kts | 334° |
| 2026-04-26 16:35 | 55.60281 | 49.29883 | 410 ft | 9 kts | 352° |
| 2026-04-26 16:35 | 55.60345 | 49.29891 | 408 ft | 9 kts | 13° |
| 2026-04-26 16:36 | 55.60401 | 49.29937 | 415 ft | 9 kts | 32° |
| 2026-04-26 16:36 | 55.60452 | 49.29996 | 415 ft | 9 kts | 34° |
| 2026-04-26 16:36 | 55.60499 | 49.30054 | 415 ft | 7 kts | 35° |
| 2026-04-26 16:36 | 55.60543 | 49.30075 | 412 ft | 6 kts | 349° |
| 2026-04-26 16:37 | 55.60573 | 49.30032 | 413 ft | 6 kts | 309° |
| 2026-04-26 16:37 | 55.60597 | 49.29977 | 412 ft | 6 kts | 306° |
| 2026-04-26 16:37 | 55.60616 | 49.29929 | 413 ft | 3 kts | 304° |
| 2026-04-26 16:37 | 55.60621 | 49.29909 | 411 ft | 3 kts | 285° |
| 2026-04-26 16:38 | 55.60611 | 49.29871 | 415 ft | 3 kts | 227° |
| 2026-04-26 16:38 | 55.60602 | 49.29859 | 410 ft | 0 kts | 215° |